createdAt,value
2022-12-18T00:01:26.014Z,102061.34
2022-12-18T00:03:56.232Z,102063.81
2022-12-18T00:06:26.613Z,102065.50
2022-12-18T00:08:56.080Z,102068.22
2022-12-18T00:11:27.328Z,102063.78
2022-12-18T00:13:56.857Z,102075.91
2022-12-18T00:16:26.185Z,102090.47
2022-12-18T00:19:00.360Z,102080.84
2022-12-18T00:21:30.068Z,102088.72
2022-12-18T00:23:58.592Z,102093.03
2022-12-18T00:26:31.345Z,102094.75
2022-12-18T00:29:02.367Z,102102.44
2022-12-18T00:31:31.616Z,102105.84
2022-12-18T00:34:00.293Z,102112.22
2022-12-18T00:36:31.092Z,102120.66
2022-12-18T00:39:00.798Z,102123.22
2022-12-18T00:41:47.842Z,102130.16
2022-12-18T00:44:18.233Z,102139.56
2022-12-18T00:46:47.157Z,102141.44
2022-12-18T00:49:16.571Z,102144.25
2022-12-18T00:51:44.379Z,102138.91
2022-12-18T00:54:12.364Z,102151.81
2022-12-18T00:56:48.370Z,102158.63
2022-12-18T00:59:18.768Z,102173.00
2022-12-18T01:01:47.671Z,102167.06
2022-12-18T01:04:15.898Z,102175.31
2022-12-18T01:06:46.307Z,102178.47
2022-12-18T01:09:14.127Z,102175.78
2022-12-18T01:11:41.552Z,102180.31
2022-12-18T01:14:09.764Z,102186.13
2022-12-18T01:16:38.719Z,102189.94
2022-12-18T01:19:06.251Z,102197.53
2022-12-18T01:21:34.484Z,102200.31
2022-12-18T01:24:05.765Z,102196.22
2022-12-18T01:26:33.257Z,102199.87
2022-12-18T01:29:00.993Z,102193.00
2022-12-18T01:31:32.510Z,102201.88
2022-12-18T01:34:03.027Z,102192.06
2022-12-18T01:36:34.169Z,102197.00
2022-12-18T01:39:06.334Z,102195.22
2022-12-18T01:41:54.661Z,102197.53
2022-12-18T01:44:59.016Z,102196.94
2022-12-18T01:47:29.558Z,102208.25
2022-12-18T01:50:00.421Z,102213.44
2022-12-18T01:52:31.866Z,102220.63
2022-12-18T01:55:01.339Z,102211.69
2022-12-18T01:57:29.808Z,102210.91
2022-12-18T02:00:04.081Z,102215.72
2022-12-18T02:02:42.120Z,102217.34
2022-12-18T02:05:12.630Z,102225.06
2022-12-18T02:08:02.790Z,102229.19
2022-12-18T02:10:43.734Z,102227.69
2022-12-18T02:13:39.495Z,102233.34
2022-12-18T02:16:10.256Z,102235.72
2022-12-18T02:18:45.355Z,102242.63
2022-12-18T02:21:22.032Z,102248.75
2022-12-18T02:24:01.517Z,102241.88
2022-12-18T02:26:42.215Z,102247.69
2022-12-18T02:29:16.462Z,102239.19
2022-12-18T02:31:50.036Z,102248.50
2022-12-18T02:34:20.636Z,102245.78
2022-12-18T02:36:50.947Z,102252.66
2022-12-18T02:39:23.038Z,102257.59
2022-12-18T02:41:52.320Z,102256.09
2022-12-18T02:44:21.523Z,102264.44
2022-12-18T02:46:54.114Z,102262.28
2022-12-18T02:49:28.740Z,102270.16
2022-12-18T02:52:25.727Z,102273.41
2022-12-18T02:55:13.415Z,102266.91
2022-12-18T02:57:50.597Z,102277.91
2022-12-18T03:00:30.587Z,102276.19
2022-12-18T03:03:07.127Z,102283.75
2022-12-18T03:05:40.327Z,102279.91
2022-12-18T03:08:20.051Z,102278.00
2022-12-18T03:11:05.714Z,102283.03
2022-12-18T03:13:38.463Z,102295.72
2022-12-18T03:16:10.390Z,102295.47
2022-12-18T03:18:42.141Z,102301.75
2022-12-18T03:21:12.875Z,102289.97
2022-12-18T03:23:49.352Z,102295.66
2022-12-18T03:26:23.381Z,102298.34
2022-12-18T03:28:57.575Z,102309.13
2022-12-18T03:31:30.348Z,102313.72
2022-12-18T03:34:09.623Z,102324.53
2022-12-18T03:36:39.070Z,102319.28
2022-12-18T03:39:06.804Z,102313.00
2022-12-18T03:41:44.372Z,102319.22
2022-12-18T03:44:21.795Z,102322.84
2022-12-18T03:46:59.139Z,102325.94
2022-12-18T03:49:54.907Z,102316.69
2022-12-18T03:52:29.459Z,102316.00
2022-12-18T03:55:00.775Z,102322.72
2022-12-18T03:57:31.311Z,102325.31
2022-12-18T04:00:11.979Z,102335.56
2022-12-18T04:02:47.170Z,102337.50
2022-12-18T04:05:16.850Z,102339.31
2022-12-18T04:07:46.134Z,102339.53
2022-12-18T04:10:16.807Z,102343.78
2022-12-18T04:12:45.228Z,102350.59
2022-12-18T04:15:13.299Z,102360.91
2022-12-18T04:17:48.244Z,102358.19
2022-12-18T04:20:16.935Z,102364.09
2022-12-18T04:22:44.719Z,102365.75
2022-12-18T04:25:12.217Z,102369.13
2022-12-18T04:27:40.978Z,102375.13
2022-12-18T04:30:09.887Z,102386.37
2022-12-18T04:32:37.843Z,102381.03
2022-12-18T04:35:07.661Z,102390.69
2022-12-18T04:37:35.851Z,102394.16
2022-12-18T04:40:04.164Z,102398.44
2022-12-18T04:42:32.742Z,102398.09
2022-12-18T04:45:00.191Z,102402.47
2022-12-18T04:47:27.645Z,102407.56
2022-12-18T04:49:55.490Z,102407.47
2022-12-18T04:52:25.906Z,102412.78
2022-12-18T04:54:53.312Z,102420.41
2022-12-18T04:57:21.001Z,102415.22
2022-12-18T04:59:48.548Z,102415.31
2022-12-18T05:02:16.088Z,102419.69
2022-12-18T05:04:43.984Z,102425.59
2022-12-18T05:07:11.414Z,102419.63
2022-12-18T05:09:38.863Z,102421.44
2022-12-18T05:12:06.739Z,102431.88
2022-12-18T05:14:34.136Z,102428.56
2022-12-18T05:17:01.588Z,102430.28
2022-12-18T05:19:29.358Z,102432.12
2022-12-18T05:21:56.784Z,102436.50
2022-12-18T05:24:24.231Z,102432.34
2022-12-18T05:26:52.023Z,102441.97
2022-12-18T05:29:19.421Z,102440.22
2022-12-18T05:31:46.962Z,102445.53
2022-12-18T05:34:14.842Z,102455.94
2022-12-18T05:36:42.415Z,102461.16
2022-12-18T05:39:10.559Z,102447.53
2022-12-18T05:41:38.367Z,102460.37
2022-12-18T05:44:06.103Z,102463.78
2022-12-18T05:46:33.687Z,102473.56
2022-12-18T05:49:02.236Z,102475.31
2022-12-18T05:51:29.738Z,102469.34
2022-12-18T05:53:57.271Z,102479.56
2022-12-18T05:56:25.064Z,102481.34
2022-12-18T05:58:54.419Z,102497.66
2022-12-18T06:01:26.402Z,102496.88
2022-12-18T06:03:54.549Z,102502.97
2022-12-18T06:06:25.339Z,102506.41
2022-12-18T06:08:53.976Z,102497.94
2022-12-18T06:11:24.771Z,102496.12
2022-12-18T06:13:58.881Z,102498.81
2022-12-18T06:16:28.894Z,102506.53
2022-12-18T06:19:04.519Z,102493.72
2022-12-18T06:21:33.199Z,102504.13
2022-12-18T06:24:01.527Z,102514.28
2022-12-18T06:26:28.995Z,102513.47
2022-12-18T06:28:56.981Z,102512.75
2022-12-18T06:31:25.983Z,102521.19
2022-12-18T06:33:54.043Z,102527.25
2022-12-18T06:36:22.278Z,102527.31
2022-12-18T06:38:50.184Z,102532.44
2022-12-18T06:41:20.358Z,102540.09
2022-12-18T06:43:48.281Z,102535.94
2022-12-18T06:46:16.160Z,102545.50
2022-12-18T06:48:43.751Z,102544.50
2022-12-18T06:51:11.534Z,102548.59
2022-12-18T06:53:39.232Z,102548.53
2022-12-18T06:56:10.710Z,102558.78
2022-12-18T06:58:40.091Z,102559.69
2022-12-18T07:01:11.037Z,102567.47
2022-12-18T07:03:41.491Z,102579.50
2022-12-18T07:06:20.659Z,102585.97
2022-12-18T07:08:49.649Z,102592.75
2022-12-18T07:11:18.408Z,102596.03
2022-12-18T07:13:46.985Z,102595.03
2022-12-18T07:16:24.860Z,102603.75
2022-12-18T07:18:55.633Z,102608.16
2022-12-18T07:21:24.913Z,102613.28
2022-12-18T07:23:53.148Z,102611.69
2022-12-18T07:26:22.252Z,102615.94
2022-12-18T07:28:50.279Z,102613.34
2022-12-18T07:31:22.688Z,102618.19
2022-12-18T07:33:51.537Z,102622.44
2022-12-18T07:36:19.416Z,102615.94
2022-12-18T07:38:50.785Z,102633.78
2022-12-18T07:41:19.639Z,102647.56
2022-12-18T07:43:47.648Z,102643.81
2022-12-18T07:46:16.680Z,102639.66
2022-12-18T07:48:46.295Z,102661.09
2022-12-18T07:51:19.384Z,102666.22
2022-12-18T07:53:52.254Z,102659.34
2022-12-18T07:56:29.561Z,102655.66
2022-12-18T07:58:59.874Z,102669.22
2022-12-18T08:01:27.856Z,102668.53
2022-12-18T08:03:55.996Z,102677.00
2022-12-18T08:06:24.221Z,102674.22
2022-12-18T08:08:56.345Z,102673.69
2022-12-18T08:11:25.934Z,102682.16
2022-12-18T08:13:53.988Z,102684.50
2022-12-18T08:16:22.953Z,102691.66
2022-12-18T08:18:53.727Z,102684.59
2022-12-18T08:21:25.808Z,102688.84
2022-12-18T08:23:55.258Z,102692.62
2022-12-18T08:26:23.727Z,102701.06
2022-12-18T08:28:52.363Z,102706.94
2022-12-18T08:31:21.032Z,102713.09
2022-12-18T08:33:51.417Z,102711.94
2022-12-18T08:36:20.547Z,102714.13
2022-12-18T08:38:48.425Z,102726.75
2022-12-18T08:41:18.195Z,102722.41
2022-12-18T08:44:04.374Z,102724.81
2022-12-18T08:46:36.198Z,102715.72
2022-12-18T08:49:04.816Z,102724.72
2022-12-18T08:51:32.716Z,102726.38
2022-12-18T08:54:00.619Z,102729.88
2022-12-18T08:56:28.055Z,102724.63
2022-12-18T08:58:56.047Z,102723.69
2022-12-18T09:01:23.870Z,102724.22
2022-12-18T09:03:52.031Z,102728.50
2022-12-18T09:06:21.376Z,102731.19
2022-12-18T09:08:48.901Z,102729.38
2022-12-18T09:11:22.288Z,102730.94
2022-12-18T09:13:51.330Z,102729.31
2022-12-18T09:16:19.272Z,102727.25
2022-12-18T09:18:47.863Z,102732.94
2022-12-18T09:21:21.458Z,102733.66
2022-12-18T09:23:53.259Z,102736.91
2022-12-18T09:26:22.627Z,102735.03
2022-12-18T09:28:51.257Z,102737.88
2022-12-18T09:31:21.607Z,102742.91
2022-12-18T09:33:49.386Z,102745.50
2022-12-18T09:36:18.577Z,102743.78
2022-12-18T09:38:46.126Z,102743.25
2022-12-18T09:41:32.059Z,102742.44
2022-12-18T09:44:19.671Z,102744.81
2022-12-18T09:46:54.896Z,102749.00
2022-12-18T09:49:27.507Z,102746.00
2022-12-18T09:51:58.236Z,102743.91
2022-12-18T09:54:33.966Z,102741.06
2022-12-18T09:57:02.106Z,102738.19
2022-12-18T09:59:40.834Z,102733.50
2022-12-18T10:02:23.858Z,102735.66
2022-12-18T10:05:15.398Z,102728.31
2022-12-18T10:08:03.028Z,102724.66
2022-12-18T10:10:42.932Z,102733.59
2022-12-18T10:13:29.384Z,102733.47
2022-12-18T10:16:27.598Z,102722.66
2022-12-18T10:19:16.480Z,102731.59
2022-12-18T10:21:51.284Z,102722.84
2022-12-18T10:24:21.624Z,102710.81
2022-12-18T10:26:49.420Z,102712.97
2022-12-18T10:29:18.019Z,102716.47
2022-12-18T10:31:45.491Z,102711.53
2022-12-18T10:34:16.412Z,102714.16
2022-12-18T10:36:44.094Z,102712.53
2022-12-18T10:39:24.086Z,102709.34
2022-12-18T10:41:52.816Z,102706.97
2022-12-18T10:44:30.432Z,102710.56
2022-12-18T10:47:10.068Z,102720.12
2022-12-18T10:49:43.100Z,102714.37
2022-12-18T10:52:23.697Z,102711.09
2022-12-18T10:55:04.172Z,102700.59
2022-12-18T10:57:37.986Z,102703.31
2022-12-18T11:00:28.632Z,102692.59
2022-12-18T11:02:57.345Z,102701.28
2022-12-18T11:05:34.987Z,102710.06
2022-12-18T11:08:02.987Z,102706.22
2022-12-18T11:10:36.547Z,102698.16
2022-12-18T11:13:32.536Z,102700.25
2022-12-18T11:16:00.610Z,102703.44
2022-12-18T11:18:34.909Z,102693.78
2022-12-18T11:21:12.009Z,102702.38
2022-12-18T11:23:50.359Z,102700.53
2022-12-18T11:26:18.543Z,102705.47
2022-12-18T11:28:51.572Z,102696.81
2022-12-18T11:31:20.998Z,102698.31
2022-12-18T11:34:28.682Z,102704.59
2022-12-18T11:37:00.591Z,102689.53
2022-12-18T11:39:34.488Z,102702.16
2022-12-18T11:42:35.718Z,102710.41
2022-12-18T11:45:31.609Z,102706.12
2022-12-18T11:48:10.137Z,102709.72
2022-12-18T11:50:38.408Z,102698.06
2022-12-18T11:53:10.273Z,102708.28
2022-12-18T11:56:00.777Z,102714.75
2022-12-18T11:58:54.611Z,102716.41
2022-12-18T12:01:44.674Z,102717.06
2022-12-18T12:04:37.176Z,102716.72
2022-12-18T12:07:12.185Z,102711.59
2022-12-18T12:09:47.000Z,102716.72
2022-12-18T12:12:58.512Z,102718.06
2022-12-18T12:15:44.105Z,102727.22
2022-12-18T12:18:16.567Z,102726.22
2022-12-18T12:21:04.628Z,102722.59
2022-12-18T12:23:40.968Z,102724.41
2022-12-18T12:26:30.866Z,102713.84
2022-12-18T12:29:27.652Z,102708.66
2022-12-18T12:32:13.573Z,102700.19
2022-12-18T12:35:09.818Z,102692.53
2022-12-18T12:37:37.576Z,102692.47
2022-12-18T12:40:26.786Z,102684.72
2022-12-18T12:43:13.633Z,102682.28
2022-12-18T12:46:01.983Z,102678.88
2022-12-18T12:48:38.066Z,102681.91
2022-12-18T12:51:29.704Z,102689.88
2022-12-18T12:54:00.493Z,102695.94
2022-12-18T12:56:47.032Z,102694.41
2022-12-18T12:59:32.727Z,102700.06
2022-12-18T13:02:16.731Z,102697.31
2022-12-18T13:04:50.109Z,102704.06
2022-12-18T13:07:59.384Z,102698.63
2022-12-18T13:10:33.528Z,102710.00
2022-12-18T13:13:13.417Z,102711.69
2022-12-18T13:15:51.283Z,102716.84
2022-12-18T13:18:24.874Z,102715.78
2022-12-18T13:21:01.207Z,102713.72
2022-12-18T13:23:41.725Z,102716.94
2022-12-18T13:26:23.224Z,102729.16
2022-12-18T13:28:57.892Z,102731.53
2022-12-18T13:31:32.059Z,102745.31
2022-12-18T13:34:26.106Z,102749.53
2022-12-18T13:36:57.281Z,102749.09
2022-12-18T13:39:34.765Z,102751.91
2022-12-18T13:42:06.372Z,102752.56
2022-12-18T13:44:40.902Z,102752.81
2022-12-18T13:47:33.772Z,102756.91
2022-12-18T13:50:10.145Z,102756.91
2022-12-18T13:52:40.490Z,102757.81
2022-12-18T13:55:18.844Z,102750.84
2022-12-18T13:57:47.092Z,102750.84
2022-12-18T14:00:32.102Z,102759.06
2022-12-18T14:03:01.021Z,102773.81
2022-12-18T14:05:32.160Z,102772.94
2022-12-18T14:08:11.149Z,102769.56
2022-12-18T14:10:48.521Z,102780.22
2022-12-18T14:13:39.123Z,102786.00
2022-12-18T14:16:08.628Z,102794.88
2022-12-18T14:18:47.473Z,102783.69
2022-12-18T14:21:30.322Z,102785.53
2022-12-18T14:24:08.161Z,102788.87
2022-12-18T14:26:35.693Z,102792.66
2022-12-18T14:29:24.690Z,102775.41
2022-12-18T14:32:17.742Z,102793.56
2022-12-18T14:34:48.368Z,102797.84
2022-12-18T14:37:21.068Z,102786.81
2022-12-18T14:39:58.076Z,102796.47
2022-12-18T14:42:29.132Z,102793.22
2022-12-18T14:45:42.621Z,102788.94
2022-12-18T14:48:38.805Z,102803.78
2022-12-18T14:51:21.678Z,102808.25
2022-12-18T14:53:55.841Z,102818.56
2022-12-18T14:56:27.132Z,102817.84
2022-12-18T14:58:57.355Z,102814.56
2022-12-18T15:01:29.253Z,102816.25
2022-12-18T15:03:58.689Z,102821.53
2022-12-18T15:06:31.419Z,102825.97
2022-12-18T15:09:01.465Z,102829.44
2022-12-18T15:11:30.725Z,102826.13
2022-12-18T15:13:59.658Z,102823.63
2022-12-18T15:16:27.781Z,102833.09
2022-12-18T15:18:55.991Z,102833.28
2022-12-18T15:21:24.688Z,102834.38
2022-12-18T15:23:53.628Z,102832.59
2022-12-18T15:26:23.155Z,102838.66
2022-12-18T15:28:56.952Z,102840.44
2022-12-18T15:31:37.865Z,102842.41
2022-12-18T15:34:08.681Z,102851.06
2022-12-18T15:36:37.504Z,102846.87
2022-12-18T15:39:06.789Z,102848.50
2022-12-18T15:41:36.375Z,102854.56
2022-12-18T15:44:24.337Z,102852.31
2022-12-18T15:46:52.257Z,102857.56
2022-12-18T15:49:20.561Z,102867.94
2022-12-18T15:51:53.514Z,102872.22
2022-12-18T15:54:40.932Z,102873.91
2022-12-18T15:57:26.592Z,102877.28
2022-12-18T15:59:59.003Z,102863.69
2022-12-18T16:02:28.950Z,102874.06
2022-12-18T16:04:57.048Z,102880.84
2022-12-18T16:07:28.170Z,102894.81
2022-12-18T16:09:58.920Z,102896.50
2022-12-18T16:12:28.533Z,102897.34
2022-12-18T16:14:56.112Z,102903.44
2022-12-18T16:17:23.978Z,102906.06
2022-12-18T16:19:51.730Z,102905.25
2022-12-18T16:22:31.072Z,102910.38
2022-12-18T16:24:59.151Z,102909.66
2022-12-18T16:27:27.120Z,102912.34
2022-12-18T16:29:55.031Z,102921.78
2022-12-18T16:32:24.598Z,102932.06
2022-12-18T16:34:52.521Z,102929.50
2022-12-18T16:37:20.284Z,102935.56
2022-12-18T16:39:48.255Z,102943.31
2022-12-18T16:42:20.056Z,102945.00
2022-12-18T16:44:50.091Z,102940.84
2022-12-18T16:47:18.313Z,102939.06
2022-12-18T16:49:46.643Z,102945.88
2022-12-18T16:52:14.980Z,102939.88
2022-12-18T16:54:42.658Z,102943.31
2022-12-18T16:57:14.265Z,102943.31
2022-12-18T16:59:42.249Z,102940.72
2022-12-18T17:02:15.696Z,102925.34
2022-12-18T17:04:46.336Z,102933.97
2022-12-18T17:07:15.185Z,102943.41
2022-12-18T17:09:43.284Z,102939.16
2022-12-18T17:12:11.309Z,102942.66
2022-12-18T17:14:39.119Z,102947.84
2022-12-18T17:17:20.762Z,102938.31
2022-12-18T17:19:51.248Z,102937.53
2022-12-18T17:22:19.479Z,102938.31
2022-12-18T17:24:47.535Z,102942.66
2022-12-18T17:27:16.669Z,102951.28
2022-12-18T17:29:48.330Z,102948.75
2022-12-18T17:32:18.116Z,102960.78
2022-12-18T17:34:46.068Z,102958.25
2022-12-18T17:37:13.703Z,102959.13
2022-12-18T17:39:42.239Z,102957.38
2022-12-18T17:42:14.582Z,102960.75
2022-12-18T17:44:44.250Z,102959.97
2022-12-18T17:47:14.479Z,102963.38
2022-12-18T17:49:42.244Z,102968.53
2022-12-18T17:52:10.776Z,102959.97
2022-12-18T17:54:41.459Z,102963.44
2022-12-18T17:57:09.302Z,102964.28
2022-12-18T17:59:37.344Z,102966.88
2022-12-18T18:02:05.187Z,102966.91
2022-12-18T18:04:33.903Z,102970.34
2022-12-18T18:07:01.781Z,102976.41
2022-12-18T18:09:29.311Z,102972.94
2022-12-18T18:12:15.768Z,102972.97
2022-12-18T18:14:43.598Z,102972.97
2022-12-18T18:17:11.770Z,102972.94
2022-12-18T18:19:39.694Z,102978.16
2022-12-18T18:22:08.296Z,102966.97
2022-12-18T18:24:36.330Z,102964.41
2022-12-18T18:27:03.844Z,102964.41
2022-12-18T18:29:31.373Z,102966.09
2022-12-18T18:31:59.422Z,102963.53
2022-12-18T18:34:29.399Z,102962.66
2022-12-18T18:37:00.448Z,102974.72
2022-12-18T18:39:28.904Z,102967.84
2022-12-18T18:41:59.415Z,102964.38
2022-12-18T18:44:26.963Z,102965.28
2022-12-18T18:46:58.859Z,102968.69
2022-12-18T18:49:27.895Z,102966.97
2022-12-18T18:51:57.493Z,102969.53
2022-12-18T18:54:26.173Z,102965.22
2022-12-18T18:59:42.737Z,102947.16
2022-12-18T19:02:13.753Z,102954.91
2022-12-18T19:04:45.622Z,102957.47
2022-12-18T19:07:29.333Z,102955.78
2022-12-18T19:10:03.997Z,102959.22
2022-12-18T19:12:52.919Z,102955.75
2022-12-18T19:15:21.652Z,102945.41
2022-12-18T19:17:49.413Z,102954.03
2022-12-18T19:20:18.960Z,102967.81
2022-12-18T19:22:49.836Z,102974.66
2022-12-18T19:25:30.693Z,102971.22
2022-12-18T19:28:17.377Z,102977.25
2022-12-18T19:30:51.439Z,102966.06
2022-12-18T19:33:44.630Z,102985.03
2022-12-18T19:36:19.128Z,102975.53
2022-12-18T19:38:48.954Z,102975.56
2022-12-18T19:41:18.568Z,102986.75
2022-12-18T19:43:46.699Z,102996.22
2022-12-18T19:46:17.581Z,102998.78
2022-12-18T19:48:46.111Z,102993.63
2022-12-18T19:51:16.056Z,102997.94
2022-12-18T19:53:44.324Z,103000.53
2022-12-18T19:56:14.907Z,102999.66
2022-12-18T19:58:44.269Z,103004.81
2022-12-18T20:01:13.996Z,103016.00
2022-12-18T20:03:48.498Z,103015.12
2022-12-18T20:06:28.724Z,103020.31
2022-12-18T20:09:01.290Z,103028.91
2022-12-18T20:11:30.625Z,103028.03
2022-12-18T20:14:01.597Z,103030.59
2022-12-18T20:16:29.671Z,103034.91
2022-12-18T20:18:59.016Z,103035.75
2022-12-18T20:21:27.005Z,103026.22
2022-12-18T20:23:55.827Z,103033.13
2022-12-18T20:26:24.813Z,103034.81
2022-12-18T20:28:53.955Z,103040.81
2022-12-18T20:31:22.641Z,103040.88
2022-12-18T20:33:52.156Z,103039.19
2022-12-18T20:36:23.436Z,103033.13
2022-12-18T20:38:54.728Z,103035.63
2022-12-18T20:41:25.202Z,103038.25
2022-12-18T20:43:53.327Z,103035.72
2022-12-18T20:46:20.892Z,103037.38
2022-12-18T20:48:48.387Z,103043.44
2022-12-18T20:51:19.621Z,103044.31
2022-12-18T20:53:47.600Z,103051.16
2022-12-18T20:56:21.644Z,103046.87
2022-12-18T20:58:50.903Z,103046.87
2022-12-18T21:01:23.897Z,103055.47
2022-12-18T21:03:52.411Z,103055.44
2022-12-18T21:06:21.966Z,103056.25
2022-12-18T21:08:50.438Z,103063.16
2022-12-18T21:11:40.058Z,103066.53
2022-12-18T21:14:17.140Z,103059.53
2022-12-18T21:16:45.586Z,103045.72
2022-12-18T21:19:17.991Z,103044.97
2022-12-18T21:21:47.350Z,103048.41
2022-12-18T21:24:15.463Z,103047.63
2022-12-18T21:26:45.849Z,103055.41
2022-12-18T21:29:25.623Z,103049.41
2022-12-18T21:31:54.599Z,103051.09
2022-12-18T21:34:28.554Z,103057.03
2022-12-18T21:36:58.488Z,103047.63
2022-12-18T21:39:28.104Z,103050.19
2022-12-18T21:42:15.890Z,103046.78
2022-12-18T21:44:44.772Z,103048.47
2022-12-18T21:47:21.651Z,103048.53
2022-12-18T21:49:52.899Z,103045.94
2022-12-18T21:52:25.705Z,103045.97
2022-12-18T21:55:09.044Z,103051.94
2022-12-18T21:57:38.607Z,103056.25
2022-12-18T22:00:10.416Z,103067.37
2022-12-18T22:02:40.697Z,103068.16
2022-12-18T22:05:08.777Z,103061.31
2022-12-18T22:07:36.555Z,103047.66
2022-12-18T22:10:04.611Z,103051.97
2022-12-18T22:12:44.008Z,103055.38
2022-12-18T22:15:16.279Z,103053.69
2022-12-18T22:17:51.238Z,103051.13
2022-12-18T22:20:24.831Z,103054.56
2022-12-18T22:22:54.329Z,103048.53
2022-12-18T22:25:21.753Z,103045.09
2022-12-18T22:28:07.904Z,103045.06
2022-12-18T22:30:35.814Z,103043.37
2022-12-18T22:33:04.011Z,103048.50
2022-12-18T22:35:31.561Z,103050.13
2022-12-18T22:37:59.909Z,103049.25
2022-12-18T22:40:28.143Z,103051.03
2022-12-18T22:42:56.091Z,103030.44
2022-12-18T22:45:25.576Z,103034.69
2022-12-18T22:47:53.427Z,103034.69
2022-12-18T22:50:21.209Z,103031.25
2022-12-18T22:52:48.654Z,103040.72
2022-12-18T22:55:16.353Z,103045.88
2022-12-18T22:57:48.757Z,103045.00
2022-12-18T23:00:23.899Z,103041.56
2022-12-18T23:03:00.339Z,103034.53
2022-12-18T23:05:30.734Z,103024.22
2022-12-18T23:07:58.586Z,103025.94
2022-12-18T23:10:27.273Z,103028.50
2022-12-18T23:12:55.028Z,103024.25
2022-12-18T23:15:27.664Z,103023.41
2022-12-18T23:17:57.786Z,103022.66
2022-12-18T23:20:27.192Z,103031.19
2022-12-18T23:22:54.759Z,103037.91
2022-12-18T23:25:22.584Z,103029.34
2022-12-18T23:27:50.625Z,103023.16
2022-12-18T23:30:18.288Z,103025.78
2022-12-18T23:32:45.998Z,103031.81
2022-12-18T23:35:14.208Z,103038.75
2022-12-18T23:38:00.539Z,103035.31
2022-12-18T23:40:29.491Z,103041.97
2022-12-18T23:42:58.516Z,103041.91
2022-12-18T23:45:26.006Z,103047.13
2022-12-18T23:47:53.909Z,103048.97
2022-12-18T23:50:23.767Z,103049.69
2022-12-18T23:53:00.696Z,103048.66
2022-12-18T23:55:38.577Z,103048.88
2022-12-18T23:58:06.973Z,103056.50
